sensor_id;sensor_type;location;lat;lon;timestamp;temperature;humidity
782;DHT22;374;52.568;13.402;2023-03-24T00:01:56;13.30;99.90
782;DHT22;374;52.568;13.402;2023-03-24T00:04:21;12.20;99.90
782;DHT22;374;52.568;13.402;2023-03-24T00:06:49;12.20;99.90
782;DHT22;374;52.568;13.402;2023-03-24T00:09:15;12.10;99.90
782;DHT22;374;52.568;13.402;2023-03-24T00:11:42;12.20;99.90
782;DHT22;374;52.568;13.402;2023-03-24T00:14:08;12.20;99.90
782;DHT22;374;52.568;13.402;2023-03-24T00:16:37;12.20;99.90
782;DHT22;374;52.568;13.402;2023-03-24T00:19:03;12.20;99.90
782;DHT22;374;52.568;13.402;2023-03-24T00:21:29;12.10;99.90
782;DHT22;374;52.568;13.402;2023-03-24T00:23:55;12.20;99.90
782;DHT22;374;52.568;13.402;2023-03-24T00:26:22;12.10;99.90
782;DHT22;374;52.568;13.402;2023-03-24T00:28:49;12.10;99.90
782;DHT22;374;52.568;13.402;2023-03-24T00:31:16;12.10;99.90
782;DHT22;374;52.568;13.402;2023-03-24T00:33:43;12.10;99.90
782;DHT22;374;52.568;13.402;2023-03-24T00:36:10;12.10;99.90
782;DHT22;374;52.568;13.402;2023-03-24T00:38:37;12.10;99.90
782;DHT22;374;52.568;13.402;2023-03-24T00:41:05;12.10;99.90
782;DHT22;374;52.568;13.402;2023-03-24T00:43:32;12.10;99.90
782;DHT22;374;52.568;13.402;2023-03-24T00:45:59;12.10;99.90
782;DHT22;374;52.568;13.402;2023-03-24T00:48:26;12.10;99.90
782;DHT22;374;52.568;13.402;2023-03-24T00:50:52;12.10;99.90
782;DHT22;374;52.568;13.402;2023-03-24T00:53:18;12.00;99.90
782;DHT22;374;52.568;13.402;2023-03-24T00:55:45;12.10;99.90
782;DHT22;374;52.568;13.402;2023-03-24T00:58:13;12.00;99.90
782;DHT22;374;52.568;13.402;2023-03-24T01:00:47;12.10;99.90
782;DHT22;374;52.568;13.402;2023-03-24T01:03:14;12.10;99.90
782;DHT22;374;52.568;13.402;2023-03-24T01:05:39;12.00;99.90
782;DHT22;374;52.568;13.402;2023-03-24T01:08:06;12.00;99.90
782;DHT22;374;52.568;13.402;2023-03-24T01:10:36;12.00;99.90
782;DHT22;374;52.568;13.402;2023-03-24T01:13:07;11.80;99.90
782;DHT22;374;52.568;13.402;2023-03-24T01:15:33;12.00;99.90
782;DHT22;374;52.568;13.402;2023-03-24T01:18:01;12.00;99.90
782;DHT22;374;52.568;13.402;2023-03-24T01:20:27;12.20;99.90
782;DHT22;374;52.568;13.402;2023-03-24T01:23:01;12.00;99.90
782;DHT22;374;52.568;13.402;2023-03-24T01:25:27;12.00;99.90
782;DHT22;374;52.568;13.402;2023-03-24T01:27:53;11.70;99.90
782;DHT22;374;52.568;13.402;2023-03-24T01:30:25;12.10;99.90
782;DHT22;374;52.568;13.402;2023-03-24T01:32:51;12.00;99.90
782;DHT22;374;52.568;13.402;2023-03-24T01:35:18;12.00;99.90
782;DHT22;374;52.568;13.402;2023-03-24T01:37:44;12.00;99.90
782;DHT22;374;52.568;13.402;2023-03-24T01:40:17;11.80;99.90
782;DHT22;374;52.568;13.402;2023-03-24T01:42:42;12.00;99.90
782;DHT22;374;52.568;13.402;2023-03-24T01:48:37;12.00;99.90
782;DHT22;374;52.568;13.402;2023-03-24T01:51:20;12.00;99.90
782;DHT22;374;52.568;13.402;2023-03-24T01:53:55;12.00;99.90
782;DHT22;374;52.568;13.402;2023-03-24T01:56:22;12.00;99.90
782;DHT22;374;52.568;13.402;2023-03-24T01:58:52;12.00;99.90
782;DHT22;374;52.568;13.402;2023-03-24T02:01:19;12.00;99.90
782;DHT22;374;52.568;13.402;2023-03-24T02:03:47;12.00;99.90
782;DHT22;374;52.568;13.402;2023-03-24T02:06:14;12.00;99.90
782;DHT22;374;52.568;13.402;2023-03-24T02:08:57;12.00;99.90
782;DHT22;374;52.568;13.402;2023-03-24T02:11:26;12.00;99.90
782;DHT22;374;52.568;13.402;2023-03-24T02:13:52;12.00;99.90
782;DHT22;374;52.568;13.402;2023-03-24T02:19:52;12.00;99.90
782;DHT22;374;52.568;13.402;2023-03-24T02:22:27;12.00;99.90
782;DHT22;374;52.568;13.402;2023-03-24T02:33:38;12.00;99.90
782;DHT22;374;52.568;13.402;2023-03-24T02:36:24;12.00;99.90
782;DHT22;374;52.568;13.402;2023-03-24T02:39:16;12.00;99.90
782;DHT22;374;52.568;13.402;2023-03-24T02:44:45;12.00;99.90
782;DHT22;374;52.568;13.402;2023-03-24T02:47:24;12.00;99.90
782;DHT22;374;52.568;13.402;2023-03-24T02:52:49;12.00;99.90
782;DHT22;374;52.568;13.402;2023-03-24T02:55:25;12.00;99.90
782;DHT22;374;52.568;13.402;2023-03-24T02:57:59;12.10;99.90
782;DHT22;374;52.568;13.402;2023-03-24T03:00:41;12.00;99.90
782;DHT22;374;52.568;13.402;2023-03-24T03:03:21;12.00;99.90
782;DHT22;374;52.568;13.402;2023-03-24T03:06:02;12.00;99.90
782;DHT22;374;52.568;13.402;2023-03-24T03:08:31;12.00;99.90
782;DHT22;374;52.568;13.402;2023-03-24T03:11:00;12.00;99.90
782;DHT22;374;52.568;13.402;2023-03-24T03:13:37;11.90;99.90
782;DHT22;374;52.568;13.402;2023-03-24T03:16:08;11.90;99.90
782;DHT22;374;52.568;13.402;2023-03-24T03:18:48;11.90;99.90
782;DHT22;374;52.568;13.402;2023-03-24T03:21:38;11.90;99.90
782;DHT22;374;52.568;13.402;2023-03-24T03:24:09;12.60;99.90
782;DHT22;374;52.568;13.402;2023-03-24T03:26:35;11.80;99.90
782;DHT22;374;52.568;13.402;2023-03-24T03:29:10;11.80;99.90
782;DHT22;374;52.568;13.402;2023-03-24T03:31:42;11.70;99.90
782;DHT22;374;52.568;13.402;2023-03-24T03:34:16;11.90;99.90
782;DHT22;374;52.568;13.402;2023-03-24T03:37:00;11.90;99.90
782;DHT22;374;52.568;13.402;2023-03-24T03:39:30;11.80;99.90
782;DHT22;374;52.568;13.402;2023-03-24T03:41:57;11.80;99.90
782;DHT22;374;52.568;13.402;2023-03-24T03:44:23;11.80;99.90
782;DHT22;374;52.568;13.402;2023-03-24T03:46:49;11.70;99.90
782;DHT22;374;52.568;13.402;2023-03-24T03:49:14;11.80;99.90
782;DHT22;374;52.568;13.402;2023-03-24T03:51:40;11.80;99.90
782;DHT22;374;52.568;13.402;2023-03-24T03:54:09;11.80;99.90
782;DHT22;374;52.568;13.402;2023-03-24T03:56:35;11.80;99.90
782;DHT22;374;52.568;13.402;2023-03-24T03:59:02;11.70;99.90
782;DHT22;374;52.568;13.402;2023-03-24T04:01:30;11.70;99.90
782;DHT22;374;52.568;13.402;2023-03-24T04:07:11;11.80;99.90
782;DHT22;374;52.568;13.402;2023-03-24T04:10:12;11.80;99.90
782;DHT22;374;52.568;13.402;2023-03-24T04:13:06;11.80;99.90
782;DHT22;374;52.568;13.402;2023-03-24T04:15:50;11.80;99.90
782;DHT22;374;52.568;13.402;2023-03-24T04:21:29;11.80;99.90
782;DHT22;374;52.568;13.402;2023-03-24T04:26:42;11.80;99.90
782;DHT22;374;52.568;13.402;2023-03-24T04:29:19;11.80;99.90
782;DHT22;374;52.568;13.402;2023-03-24T04:34:35;11.80;99.90
782;DHT22;374;52.568;13.402;2023-03-24T04:37:07;11.80;99.90
782;DHT22;374;52.568;13.402;2023-03-24T04:39:38;11.80;99.90
782;DHT22;374;52.568;13.402;2023-03-24T04:42:08;11.80;99.90
782;DHT22;374;52.568;13.402;2023-03-24T04:44:36;11.80;99.90
782;DHT22;374;52.568;13.402;2023-03-24T04:47:02;11.80;99.90
782;DHT22;374;52.568;13.402;2023-03-24T04:49:28;11.80;99.90
782;DHT22;374;52.568;13.402;2023-03-24T04:51:54;11.80;99.90
782;DHT22;374;52.568;13.402;2023-03-24T04:54:21;11.80;99.90
782;DHT22;374;52.568;13.402;2023-03-24T04:56:49;11.80;99.90
782;DHT22;374;52.568;13.402;2023-03-24T04:59:16;11.80;99.90
782;DHT22;374;52.568;13.402;2023-03-24T05:01:43;11.80;99.90
782;DHT22;374;52.568;13.402;2023-03-24T05:04:16;11.90;99.90
782;DHT22;374;52.568;13.402;2023-03-24T05:06:42;11.80;99.90
782;DHT22;374;52.568;13.402;2023-03-24T05:09:07;11.90;99.90
782;DHT22;374;52.568;13.402;2023-03-24T05:11:33;11.80;99.90
782;DHT22;374;52.568;13.402;2023-03-24T05:13:58;11.90;99.90
782;DHT22;374;52.568;13.402;2023-03-24T05:16:24;11.90;99.90
782;DHT22;374;52.568;13.402;2023-03-24T05:18:49;11.90;99.90
782;DHT22;374;52.568;13.402;2023-03-24T05:21:15;11.90;99.90
782;DHT22;374;52.568;13.402;2023-03-24T05:23:40;11.90;99.90
782;DHT22;374;52.568;13.402;2023-03-24T05:26:06;11.90;99.90
782;DHT22;374;52.568;13.402;2023-03-24T05:28:32;11.90;99.90
782;DHT22;374;52.568;13.402;2023-03-24T05:30:57;11.90;99.90
782;DHT22;374;52.568;13.402;2023-03-24T05:33:24;12.00;99.90
782;DHT22;374;52.568;13.402;2023-03-24T05:35:50;12.00;99.90
782;DHT22;374;52.568;13.402;2023-03-24T05:38:15;13.10;99.90
782;DHT22;374;52.568;13.402;2023-03-24T05:40:41;12.00;99.90
782;DHT22;374;52.568;13.402;2023-03-24T05:43:06;12.10;99.90
782;DHT22;374;52.568;13.402;2023-03-24T05:45:32;12.00;99.90
782;DHT22;374;52.568;13.402;2023-03-24T05:47:58;12.00;99.90
782;DHT22;374;52.568;13.402;2023-03-24T05:50:23;12.00;99.90
782;DHT22;374;52.568;13.402;2023-03-24T05:52:50;12.50;99.90
782;DHT22;374;52.568;13.402;2023-03-24T05:55:17;12.00;99.90
782;DHT22;374;52.568;13.402;2023-03-24T05:57:43;12.00;99.90
782;DHT22;374;52.568;13.402;2023-03-24T06:00:10;12.00;99.90
782;DHT22;374;52.568;13.402;2023-03-24T06:02:44;12.10;99.90
782;DHT22;374;52.568;13.402;2023-03-24T06:05:11;12.10;99.90
782;DHT22;374;52.568;13.402;2023-03-24T06:07:38;12.10;99.90
782;DHT22;374;52.568;13.402;2023-03-24T06:10:07;12.10;99.90
782;DHT22;374;52.568;13.402;2023-03-24T06:12:40;12.10;99.90
782;DHT22;374;52.568;13.402;2023-03-24T06:15:07;12.10;99.90
782;DHT22;374;52.568;13.402;2023-03-24T06:17:33;12.10;99.90
782;DHT22;374;52.568;13.402;2023-03-24T06:19:59;12.10;99.90
782;DHT22;374;52.568;13.402;2023-03-24T06:22:31;12.20;99.90
782;DHT22;374;52.568;13.402;2023-03-24T06:24:57;12.20;99.90
782;DHT22;374;52.568;13.402;2023-03-24T06:27:24;12.30;99.90
782;DHT22;374;52.568;13.402;2023-03-24T06:29:51;12.20;99.90
782;DHT22;374;52.568;13.402;2023-03-24T06:32:18;12.20;99.90
782;DHT22;374;52.568;13.402;2023-03-24T06:34:44;12.10;99.90
782;DHT22;374;52.568;13.402;2023-03-24T06:37:09;12.30;99.90
782;DHT22;374;52.568;13.402;2023-03-24T06:39:35;12.30;99.90
782;DHT22;374;52.568;13.402;2023-03-24T06:42:00;12.30;99.90
782;DHT22;374;52.568;13.402;2023-03-24T06:44:26;12.30;99.90
782;DHT22;374;52.568;13.402;2023-03-24T06:46:52;12.30;99.90
782;DHT22;374;52.568;13.402;2023-03-24T06:49:17;12.30;99.90
782;DHT22;374;52.568;13.402;2023-03-24T06:51:43;12.30;99.90
782;DHT22;374;52.568;13.402;2023-03-24T06:54:08;12.30;99.90
782;DHT22;374;52.568;13.402;2023-03-24T06:56:33;12.30;99.90
782;DHT22;374;52.568;13.402;2023-03-24T06:58:59;12.30;99.90
782;DHT22;374;52.568;13.402;2023-03-24T07:01:25;12.40;99.90
782;DHT22;374;52.568;13.402;2023-03-24T07:03:51;12.40;99.90
782;DHT22;374;52.568;13.402;2023-03-24T07:06:18;12.40;99.90
782;DHT22;374;52.568;13.402;2023-03-24T07:08:44;12.40;99.90
782;DHT22;374;52.568;13.402;2023-03-24T07:11:10;12.40;99.90
782;DHT22;374;52.568;13.402;2023-03-24T07:13:36;11.80;99.90
782;DHT22;374;52.568;13.402;2023-03-24T07:16:02;12.30;99.90
782;DHT22;374;52.568;13.402;2023-03-24T07:18:28;12.50;99.90
782;DHT22;374;52.568;13.402;2023-03-24T07:20:54;12.40;99.90
782;DHT22;374;52.568;13.402;2023-03-24T07:23:19;12.50;99.90
782;DHT22;374;52.568;13.402;2023-03-24T07:25:45;12.50;99.90
782;DHT22;374;52.568;13.402;2023-03-24T07:28:10;12.50;99.90
782;DHT22;374;52.568;13.402;2023-03-24T07:30:36;12.60;99.90
782;DHT22;374;52.568;13.402;2023-03-24T07:33:05;12.70;99.90
782;DHT22;374;52.568;13.402;2023-03-24T07:35:31;12.70;99.90
782;DHT22;374;52.568;13.402;2023-03-24T07:37:58;12.80;99.90
782;DHT22;374;52.568;13.402;2023-03-24T07:40:24;12.80;99.90
782;DHT22;374;52.568;13.402;2023-03-24T07:42:49;12.80;99.90
782;DHT22;374;52.568;13.402;2023-03-24T07:45:24;12.90;99.90
782;DHT22;374;52.568;13.402;2023-03-24T07:47:50;12.10;99.90
782;DHT22;374;52.568;13.402;2023-03-24T07:50:16;11.40;99.90
782;DHT22;374;52.568;13.402;2023-03-24T07:52:47;13.10;99.90
782;DHT22;374;52.568;13.402;2023-03-24T07:55:13;14.00;99.90
782;DHT22;374;52.568;13.402;2023-03-24T07:57:41;13.00;99.90
782;DHT22;374;52.568;13.402;2023-03-24T08:00:08;13.00;99.90
782;DHT22;374;52.568;13.402;2023-03-24T08:02:43;13.00;99.90
782;DHT22;374;52.568;13.402;2023-03-24T08:05:09;13.00;99.90
782;DHT22;374;52.568;13.402;2023-03-24T08:07:35;12.90;99.90
782;DHT22;374;52.568;13.402;2023-03-24T08:10:01;12.90;99.90
782;DHT22;374;52.568;13.402;2023-03-24T08:12:26;13.00;99.90
782;DHT22;374;52.568;13.402;2023-03-24T08:14:52;12.90;99.90
782;DHT22;374;52.568;13.402;2023-03-24T08:17:17;12.90;99.90
782;DHT22;374;52.568;13.402;2023-03-24T08:19:43;12.90;99.90
782;DHT22;374;52.568;13.402;2023-03-24T08:22:08;12.90;99.90
782;DHT22;374;52.568;13.402;2023-03-24T08:24:34;12.90;99.90
782;DHT22;374;52.568;13.402;2023-03-24T08:27:00;12.80;99.90
782;DHT22;374;52.568;13.402;2023-03-24T08:29:30;14.50;99.90
782;DHT22;374;52.568;13.402;2023-03-24T08:31:56;12.90;99.90
782;DHT22;374;52.568;13.402;2023-03-24T08:34:21;12.80;99.90
782;DHT22;374;52.568;13.402;2023-03-24T08:36:49;12.80;99.90
782;DHT22;374;52.568;13.402;2023-03-24T08:39:14;12.80;99.90
782;DHT22;374;52.568;13.402;2023-03-24T08:41:40;12.80;99.90
782;DHT22;374;52.568;13.402;2023-03-24T08:44:05;12.80;99.90
782;DHT22;374;52.568;13.402;2023-03-24T08:46:32;12.80;99.90
782;DHT22;374;52.568;13.402;2023-03-24T08:48:58;12.80;99.90
782;DHT22;374;52.568;13.402;2023-03-24T08:51:25;12.70;99.90
782;DHT22;374;52.568;13.402;2023-03-24T08:53:51;12.80;99.90
782;DHT22;374;52.568;13.402;2023-03-24T08:56:18;12.80;99.90
782;DHT22;374;52.568;13.402;2023-03-24T08:58:44;12.80;99.90
782;DHT22;374;52.568;13.402;2023-03-24T09:01:16;12.90;99.90
782;DHT22;374;52.568;13.402;2023-03-24T09:03:42;12.80;99.90
782;DHT22;374;52.568;13.402;2023-03-24T09:06:09;12.90;99.90
782;DHT22;374;52.568;13.402;2023-03-24T09:08:35;12.90;99.90
782;DHT22;374;52.568;13.402;2023-03-24T09:11:01;12.90;99.90
782;DHT22;374;52.568;13.402;2023-03-24T09:13:27;12.90;99.90
782;DHT22;374;52.568;13.402;2023-03-24T09:15:57;12.90;99.90
782;DHT22;374;52.568;13.402;2023-03-24T09:18:23;13.00;99.90
782;DHT22;374;52.568;13.402;2023-03-24T09:20:49;13.00;99.90
782;DHT22;374;52.568;13.402;2023-03-24T09:23:15;13.00;99.90
782;DHT22;374;52.568;13.402;2023-03-24T09:25:41;13.00;99.90
782;DHT22;374;52.568;13.402;2023-03-24T09:28:06;13.10;99.90
782;DHT22;374;52.568;13.402;2023-03-24T09:30:33;13.10;99.90
782;DHT22;374;52.568;13.402;2023-03-24T09:32:59;13.10;99.90
782;DHT22;374;52.568;13.402;2023-03-24T09:35:27;13.20;99.90
782;DHT22;374;52.568;13.402;2023-03-24T09:37:54;13.20;99.90
782;DHT22;374;52.568;13.402;2023-03-24T09:40:29;13.20;99.90
782;DHT22;374;52.568;13.402;2023-03-24T09:45:55;13.50;99.90
782;DHT22;374;52.568;13.402;2023-03-24T09:48:32;13.90;99.90
782;DHT22;374;52.568;13.402;2023-03-24T09:51:03;14.10;99.90
782;DHT22;374;52.568;13.402;2023-03-24T09:53:51;14.20;99.90
782;DHT22;374;52.568;13.402;2023-03-24T09:56:20;14.20;99.90
782;DHT22;374;52.568;13.402;2023-03-24T09:59:00;14.20;99.90
782;DHT22;374;52.568;13.402;2023-03-24T10:01:26;14.20;99.90
782;DHT22;374;52.568;13.402;2023-03-24T10:03:55;14.20;99.90
782;DHT22;374;52.568;13.402;2023-03-24T10:06:29;14.20;99.90
782;DHT22;374;52.568;13.402;2023-03-24T10:09:07;14.20;99.90
782;DHT22;374;52.568;13.402;2023-03-24T10:17:24;14.20;99.90
782;DHT22;374;52.568;13.402;2023-03-24T10:23:16;14.20;99.90
782;DHT22;374;52.568;13.402;2023-03-24T10:25:53;14.30;99.90
782;DHT22;374;52.568;13.402;2023-03-24T10:28:37;14.40;99.90
782;DHT22;374;52.568;13.402;2023-03-24T10:31:10;14.50;99.90
782;DHT22;374;52.568;13.402;2023-03-24T10:33:40;14.50;99.90
782;DHT22;374;52.568;13.402;2023-03-24T10:36:10;14.40;99.90
782;DHT22;374;52.568;13.402;2023-03-24T10:38:36;14.50;99.90
782;DHT22;374;52.568;13.402;2023-03-24T10:41:03;14.60;99.90
782;DHT22;374;52.568;13.402;2023-03-24T10:43:29;14.60;99.90
782;DHT22;374;52.568;13.402;2023-03-24T10:45:56;14.70;99.90
782;DHT22;374;52.568;13.402;2023-03-24T10:51:05;14.80;99.90
782;DHT22;374;52.568;13.402;2023-03-24T10:53:31;14.80;99.90
782;DHT22;374;52.568;13.402;2023-03-24T10:56:00;14.80;99.90
782;DHT22;374;52.568;13.402;2023-03-24T10:58:37;14.80;99.90
782;DHT22;374;52.568;13.402;2023-03-24T11:01:26;14.80;99.90
782;DHT22;374;52.568;13.402;2023-03-24T11:04:01;14.80;99.90
782;DHT22;374;52.568;13.402;2023-03-24T11:06:30;14.80;99.90
782;DHT22;374;52.568;13.402;2023-03-24T11:09:14;14.80;99.90
782;DHT22;374;52.568;13.402;2023-03-24T11:11:42;14.90;99.90
782;DHT22;374;52.568;13.402;2023-03-24T11:14:27;14.90;99.90
782;DHT22;374;52.568;13.402;2023-03-24T11:17:02;14.90;99.90
782;DHT22;374;52.568;13.402;2023-03-24T11:19:34;14.90;99.90
782;DHT22;374;52.568;13.402;2023-03-24T11:22:03;14.90;99.90
782;DHT22;374;52.568;13.402;2023-03-24T11:24:34;15.00;99.90
782;DHT22;374;52.568;13.402;2023-03-24T11:27:01;15.00;99.90
782;DHT22;374;52.568;13.402;2023-03-24T11:29:30;15.00;99.90
782;DHT22;374;52.568;13.402;2023-03-24T11:31:59;15.00;99.90
782;DHT22;374;52.568;13.402;2023-03-24T11:34:30;15.10;99.90
782;DHT22;374;52.568;13.402;2023-03-24T11:37:10;15.20;99.90
782;DHT22;374;52.568;13.402;2023-03-24T11:39:37;15.20;99.90
782;DHT22;374;52.568;13.402;2023-03-24T11:47:12;15.30;99.90
782;DHT22;374;52.568;13.402;2023-03-24T11:49:45;15.40;99.90
782;DHT22;374;52.568;13.402;2023-03-24T11:52:29;15.40;99.90
782;DHT22;374;52.568;13.402;2023-03-24T11:54:55;15.40;99.90
782;DHT22;374;52.568;13.402;2023-03-24T11:58:11;15.50;99.90
782;DHT22;374;52.568;13.402;2023-03-24T12:00:46;15.40;99.90
782;DHT22;374;52.568;13.402;2023-03-24T12:06:23;15.30;99.90
782;DHT22;374;52.568;13.402;2023-03-24T12:09:09;15.30;99.90
782;DHT22;374;52.568;13.402;2023-03-24T12:14:18;15.50;99.90
782;DHT22;374;52.568;13.402;2023-03-24T12:17:13;15.50;99.90
782;DHT22;374;52.568;13.402;2023-03-24T12:19:49;15.50;99.90
782;DHT22;374;52.568;13.402;2023-03-24T12:22:49;15.60;99.90
782;DHT22;374;52.568;13.402;2023-03-24T12:25:40;15.60;99.90
782;DHT22;374;52.568;13.402;2023-03-24T12:36:24;15.60;99.90
782;DHT22;374;52.568;13.402;2023-03-24T12:39:08;15.50;99.90
782;DHT22;374;52.568;13.402;2023-03-24T12:44:22;15.50;99.90
782;DHT22;374;52.568;13.402;2023-03-24T12:52:34;15.40;99.90
782;DHT22;374;52.568;13.402;2023-03-24T13:01:12;15.30;99.90
782;DHT22;374;52.568;13.402;2023-03-24T13:06:14;15.30;99.90
782;DHT22;374;52.568;13.402;2023-03-24T13:08:41;15.30;99.90
782;DHT22;374;52.568;13.402;2023-03-24T13:11:14;15.30;99.90
782;DHT22;374;52.568;13.402;2023-03-24T13:13:44;15.30;99.90
782;DHT22;374;52.568;13.402;2023-03-24T13:16:18;15.20;99.90
782;DHT22;374;52.568;13.402;2023-03-24T13:18:49;15.10;99.90
782;DHT22;374;52.568;13.402;2023-03-24T13:21:20;15.10;99.90
782;DHT22;374;52.568;13.402;2023-03-24T13:24:05;15.10;99.90
782;DHT22;374;52.568;13.402;2023-03-24T13:29:15;15.00;99.90
782;DHT22;374;52.568;13.402;2023-03-24T13:32:05;15.00;99.90
782;DHT22;374;52.568;13.402;2023-03-24T13:34:36;15.00;99.90
782;DHT22;374;52.568;13.402;2023-03-24T13:37:09;14.90;99.90
782;DHT22;374;52.568;13.402;2023-03-24T13:39:37;14.90;99.90
782;DHT22;374;52.568;13.402;2023-03-24T13:42:04;14.90;99.90
782;DHT22;374;52.568;13.402;2023-03-24T13:47:07;14.90;99.90
782;DHT22;374;52.568;13.402;2023-03-24T13:49:34;14.90;99.90
782;DHT22;374;52.568;13.402;2023-03-24T13:52:05;14.90;99.90
782;DHT22;374;52.568;13.402;2023-03-24T13:54:34;14.90;99.90
782;DHT22;374;52.568;13.402;2023-03-24T13:57:10;14.90;99.90
782;DHT22;374;52.568;13.402;2023-03-24T13:59:58;14.90;99.90
782;DHT22;374;52.568;13.402;2023-03-24T14:02:54;14.80;99.90
782;DHT22;374;52.568;13.402;2023-03-24T14:07:48;14.80;99.90
782;DHT22;374;52.568;13.402;2023-03-24T14:15:28;14.80;99.90
782;DHT22;374;52.568;13.402;2023-03-24T14:17:56;14.90;99.90
782;DHT22;374;52.568;13.402;2023-03-24T14:20:40;14.90;99.90
782;DHT22;374;52.568;13.402;2023-03-24T14:23:21;14.90;99.90
782;DHT22;374;52.568;13.402;2023-03-24T14:25:53;14.90;99.90
782;DHT22;374;52.568;13.402;2023-03-24T14:28:46;14.90;99.90
782;DHT22;374;52.568;13.402;2023-03-24T14:36:37;14.90;99.90
782;DHT22;374;52.568;13.402;2023-03-24T14:41:51;14.90;99.90
782;DHT22;374;52.568;13.402;2023-03-24T14:47:19;14.90;99.90
782;DHT22;374;52.568;13.402;2023-03-24T14:49:47;14.90;99.90
782;DHT22;374;52.568;13.402;2023-03-24T14:52:41;14.90;99.90
782;DHT22;374;52.568;13.402;2023-03-24T14:55:06;14.90;99.90
782;DHT22;374;52.568;13.402;2023-03-24T14:57:39;14.80;99.90
782;DHT22;374;52.568;13.402;2023-03-24T15:00:20;14.80;99.90
782;DHT22;374;52.568;13.402;2023-03-24T15:02:54;14.80;99.90
782;DHT22;374;52.568;13.402;2023-03-24T15:05:28;14.80;99.90
782;DHT22;374;52.568;13.402;2023-03-24T15:08:12;14.80;99.90
782;DHT22;374;52.568;13.402;2023-03-24T15:10:56;14.80;99.90
782;DHT22;374;52.568;13.402;2023-03-24T15:13:48;14.90;99.90
782;DHT22;374;52.568;13.402;2023-03-24T15:18:54;14.90;99.90
782;DHT22;374;52.568;13.402;2023-03-24T15:21:32;14.80;99.90
782;DHT22;374;52.568;13.402;2023-03-24T15:23:59;14.80;99.90
782;DHT22;374;52.568;13.402;2023-03-24T15:26:30;14.80;99.90
782;DHT22;374;52.568;13.402;2023-03-24T15:29:01;14.80;99.90
782;DHT22;374;52.568;13.402;2023-03-24T15:31:27;14.80;99.90
782;DHT22;374;52.568;13.402;2023-03-24T15:34:04;14.80;99.90
782;DHT22;374;52.568;13.402;2023-03-24T15:36:36;14.70;99.90
782;DHT22;374;52.568;13.402;2023-03-24T15:39:15;14.80;99.90
782;DHT22;374;52.568;13.402;2023-03-24T15:41:42;14.80;99.90
782;DHT22;374;52.568;13.402;2023-03-24T15:44:08;14.80;99.90
782;DHT22;374;52.568;13.402;2023-03-24T15:46:34;14.80;99.90
782;DHT22;374;52.568;13.402;2023-03-24T15:48:59;14.80;99.90
782;DHT22;374;52.568;13.402;2023-03-24T15:51:44;14.80;99.90
782;DHT22;374;52.568;13.402;2023-03-24T15:54:23;14.80;99.90
782;DHT22;374;52.568;13.402;2023-03-24T15:56:59;14.70;99.90
782;DHT22;374;52.568;13.402;2023-03-24T15:59:32;14.70;99.90
782;DHT22;374;52.568;13.402;2023-03-24T16:02:00;14.70;99.90
782;DHT22;374;52.568;13.402;2023-03-24T16:04:28;14.60;99.90
782;DHT22;374;52.568;13.402;2023-03-24T16:06:53;14.60;99.90
782;DHT22;374;52.568;13.402;2023-03-24T16:09:22;14.60;99.90
782;DHT22;374;52.568;13.402;2023-03-24T16:11:52;14.60;99.90
782;DHT22;374;52.568;13.402;2023-03-24T16:14:21;14.60;99.90
782;DHT22;374;52.568;13.402;2023-03-24T16:16:47;15.00;99.90
782;DHT22;374;52.568;13.402;2023-03-24T16:19:12;14.60;99.90
782;DHT22;374;52.568;13.402;2023-03-24T16:21:38;14.60;99.90
782;DHT22;374;52.568;13.402;2023-03-24T16:24:03;14.60;99.90
782;DHT22;374;52.568;13.402;2023-03-24T16:26:31;14.60;99.90
782;DHT22;374;52.568;13.402;2023-03-24T16:29:16;14.60;99.90
782;DHT22;374;52.568;13.402;2023-03-24T16:31:42;14.60;99.90
782;DHT22;374;52.568;13.402;2023-03-24T16:34:14;14.60;99.90
782;DHT22;374;52.568;13.402;2023-03-24T16:36:44;14.70;99.90
782;DHT22;374;52.568;13.402;2023-03-24T16:39:30;14.60;99.90
782;DHT22;374;52.568;13.402;2023-03-24T16:42:02;13.90;99.90
782;DHT22;374;52.568;13.402;2023-03-24T16:44:27;14.60;99.90
782;DHT22;374;52.568;13.402;2023-03-24T16:46:56;14.40;99.90
782;DHT22;374;52.568;13.402;2023-03-24T16:49:23;14.70;99.90
782;DHT22;374;52.568;13.402;2023-03-24T16:51:57;14.60;99.90
782;DHT22;374;52.568;13.402;2023-03-24T16:54:26;14.40;99.90
782;DHT22;374;52.568;13.402;2023-03-24T16:56:54;14.20;99.90
782;DHT22;374;52.568;13.402;2023-03-24T16:59:25;14.30;99.90
782;DHT22;374;52.568;13.402;2023-03-24T17:02:00;15.80;99.90
782;DHT22;374;52.568;13.402;2023-03-24T17:04:32;14.30;99.90
782;DHT22;374;52.568;13.402;2023-03-24T17:07:04;14.30;99.90
782;DHT22;374;52.568;13.402;2023-03-24T17:09:30;14.00;99.90
782;DHT22;374;52.568;13.402;2023-03-24T17:11:56;14.30;99.90
782;DHT22;374;52.568;13.402;2023-03-24T17:14:23;14.30;99.90
782;DHT22;374;52.568;13.402;2023-03-24T17:16:48;14.00;99.90
782;DHT22;374;52.568;13.402;2023-03-24T17:19:18;13.60;99.90
782;DHT22;374;52.568;13.402;2023-03-24T17:21:59;14.20;99.90
782;DHT22;374;52.568;13.402;2023-03-24T17:24:26;14.20;99.90
782;DHT22;374;52.568;13.402;2023-03-24T17:26:52;14.20;99.90
782;DHT22;374;52.568;13.402;2023-03-24T17:29:18;14.20;99.90
782;DHT22;374;52.568;13.402;2023-03-24T17:31:43;14.20;99.90
782;DHT22;374;52.568;13.402;2023-03-24T17:34:12;14.10;99.90
782;DHT22;374;52.568;13.402;2023-03-24T17:36:39;14.10;99.90
782;DHT22;374;52.568;13.402;2023-03-24T17:39:04;14.10;99.90
782;DHT22;374;52.568;13.402;2023-03-24T17:41:34;14.10;99.90
782;DHT22;374;52.568;13.402;2023-03-24T17:44:00;14.00;99.90
782;DHT22;374;52.568;13.402;2023-03-24T17:46:25;14.00;99.90
782;DHT22;374;52.568;13.402;2023-03-24T17:48:51;14.00;99.90
782;DHT22;374;52.568;13.402;2023-03-24T17:51:16;14.00;99.90
782;DHT22;374;52.568;13.402;2023-03-24T17:53:42;14.00;99.90
782;DHT22;374;52.568;13.402;2023-03-24T17:56:09;13.90;99.90
782;DHT22;374;52.568;13.402;2023-03-24T17:58:35;13.90;99.90
782;DHT22;374;52.568;13.402;2023-03-24T18:01:02;13.90;99.90
782;DHT22;374;52.568;13.402;2023-03-24T18:03:32;13.90;99.90
782;DHT22;374;52.568;13.402;2023-03-24T18:06:08;13.80;99.90
782;DHT22;374;52.568;13.402;2023-03-24T18:08:34;13.90;99.90
782;DHT22;374;52.568;13.402;2023-03-24T18:11:09;13.80;99.90
782;DHT22;374;52.568;13.402;2023-03-24T18:13:36;13.90;99.90
782;DHT22;374;52.568;13.402;2023-03-24T18:16:02;13.80;99.90
782;DHT22;374;52.568;13.402;2023-03-24T18:18:28;13.80;99.90
782;DHT22;374;52.568;13.402;2023-03-24T18:20:54;13.80;99.90
782;DHT22;374;52.568;13.402;2023-03-24T18:23:20;13.80;99.90
782;DHT22;374;52.568;13.402;2023-03-24T18:25:46;13.80;99.90
782;DHT22;374;52.568;13.402;2023-03-24T18:28:12;13.70;99.90